EZY642P EGKK-EGPH
Flight info
| Callsign | EZY642P |
|---|---|
| Flight time | 0h 56m |
| Altitude | 38000 |
| Route | LAM L10 BPK UN601 RIBEL DCT INPIP |
| Aircraft | A320/M-SDE3FGHIRWY/LB1 |
Departure
| Time | 2026-04-23 20:28 |
|---|---|
| Airport | London Gatwick Airport (EGKK) |
Arrival
| Time | 2026-04-23 21:24 |
|---|---|
| Airport | Edinburgh Airport (EGPH) |
| Time | Latitude | Longitude | Altitude | Speed | Heading |
|---|---|---|---|---|---|
| 2026-04-23 20:07 | 51.15782 | -0.17886 | 207 ft | 0 kts | 348° |
| 2026-04-23 20:13 | 51.15759 | -0.17877 | 202 ft | 4 kts | 341° |
| 2026-04-23 20:13 | 51.15734 | -0.17860 | 215 ft | 4 kts | 324° |
| 2026-04-23 20:13 | 51.15718 | -0.17831 | 211 ft | 4 kts | 272° |
| 2026-04-23 20:13 | 51.15719 | -0.17814 | 211 ft | 1 kts | 258° |
| 2026-04-23 20:14 | 51.15719 | -0.17813 | 211 ft | 0 kts | 258° |
| 2026-04-23 20:16 | 51.15717 | -0.17826 | 210 ft | 7 kts | 258° |
| 2026-04-23 20:16 | 51.15701 | -0.17945 | 208 ft | 11 kts | 257° |
| 2026-04-23 20:16 | 51.15685 | -0.18060 | 206 ft | 11 kts | 257° |
| 2026-04-23 20:16 | 51.15666 | -0.18192 | 206 ft | 12 kts | 257° |
| 2026-04-23 20:17 | 51.15647 | -0.18313 | 206 ft | 11 kts | 245° |
| 2026-04-23 20:17 | 51.15587 | -0.18346 | 206 ft | 9 kts | 172° |
| 2026-04-23 20:17 | 51.15513 | -0.18321 | 214 ft | 12 kts | 167° |
| 2026-04-23 20:17 | 51.15439 | -0.18295 | 209 ft | 10 kts | 168° |
| 2026-04-23 20:18 | 51.15374 | -0.18272 | 212 ft | 9 kts | 168° |
| 2026-04-23 20:18 | 51.15315 | -0.18251 | 211 ft | 9 kts | 168° |
| 2026-04-23 20:18 | 51.15244 | -0.18227 | 209 ft | 10 kts | 168° |
| 2026-04-23 20:18 | 51.15192 | -0.18265 | 206 ft | 8 kts | 245° |
| 2026-04-23 20:19 | 51.15179 | -0.18367 | 203 ft | 11 kts | 258° |
| 2026-04-23 20:19 | 51.15164 | -0.18483 | 205 ft | 10 kts | 257° |
| 2026-04-23 20:19 | 51.15149 | -0.18593 | 203 ft | 11 kts | 257° |
| 2026-04-23 20:19 | 51.15133 | -0.18709 | 202 ft | 10 kts | 257° |
| 2026-04-23 20:20 | 51.15117 | -0.18817 | 208 ft | 10 kts | 258° |
| 2026-04-23 20:20 | 51.15098 | -0.18957 | 207 ft | 13 kts | 257° |
| 2026-04-23 20:20 | 51.15080 | -0.19089 | 206 ft | 12 kts | 257° |
| 2026-04-23 20:20 | 51.15061 | -0.19232 | 203 ft | 18 kts | 258° |
| 2026-04-23 20:21 | 51.15035 | -0.19415 | 206 ft | 16 kts | 258° |
| 2026-04-23 20:21 | 51.15011 | -0.19585 | 211 ft | 15 kts | 257° |
| 2026-04-23 20:21 | 51.14990 | -0.19743 | 204 ft | 14 kts | 258° |
| 2026-04-23 20:21 | 51.14970 | -0.19892 | 212 ft | 13 kts | 257° |
| 2026-04-23 20:22 | 51.14950 | -0.20033 | 205 ft | 13 kts | 258° |
| 2026-04-23 20:22 | 51.14931 | -0.20171 | 204 ft | 12 kts | 258° |
| 2026-04-23 20:22 | 51.14914 | -0.20299 | 207 ft | 11 kts | 257° |
| 2026-04-23 20:22 | 51.14897 | -0.20421 | 212 ft | 11 kts | 257° |
| 2026-04-23 20:23 | 51.14880 | -0.20538 | 206 ft | 10 kts | 257° |
| 2026-04-23 20:23 | 51.14866 | -0.20644 | 207 ft | 9 kts | 257° |
| 2026-04-23 20:23 | 51.14851 | -0.20749 | 209 ft | 10 kts | 257° |
| 2026-04-23 20:23 | 51.14835 | -0.20870 | 207 ft | 12 kts | 258° |
| 2026-04-23 20:24 | 51.14817 | -0.20993 | 206 ft | 11 kts | 257° |
| 2026-04-23 20:24 | 51.14801 | -0.21112 | 210 ft | 11 kts | 257° |
| 2026-04-23 20:24 | 51.14777 | -0.21227 | 206 ft | 15 kts | 257° |
| 2026-04-23 20:24 | 51.14756 | -0.21360 | 204 ft | 10 kts | 246° |
| 2026-04-23 20:25 | 51.14702 | -0.21399 | 204 ft | 9 kts | 171° |
| 2026-04-23 20:25 | 51.14656 | -0.21350 | 207 ft | 7 kts | 143° |
| 2026-04-23 20:25 | 51.14614 | -0.21326 | 205 ft | 4 kts | 165° |
| 2026-04-23 20:25 | 51.14611 | -0.21325 | 206 ft | 0 kts | 165° |
| 2026-04-23 20:26 | 51.14557 | -0.21292 | 213 ft | 13 kts | 143° |
| 2026-04-23 20:26 | 51.14521 | -0.21181 | 206 ft | 7 kts | 91° |
| 2026-04-23 20:26 | 51.14527 | -0.21116 | 212 ft | 1 kts | 78° |
| 2026-04-23 20:26 | 51.14527 | -0.21114 | 212 ft | 0 kts | 78° |
| 2026-04-23 20:27 | 51.14558 | -0.20892 | 209 ft | 56 kts | 77° |
| 2026-04-23 20:27 | 51.14638 | -0.20319 | 206 ft | 101 kts | 77° |
| 2026-04-23 20:27 | 51.14826 | -0.18912 | 268 ft | 149 kts | 78° |
| 2026-04-23 20:28 | 51.15121 | -0.16706 | 1156 ft | 158 kts | 76° |
| 2026-04-23 20:28 | 51.15366 | -0.14926 | 1751 ft | 174 kts | 78° |
| 2026-04-23 20:28 | 51.15544 | -0.13610 | 2088 ft | 186 kts | 79° |
| 2026-04-23 20:28 | 51.15829 | -0.11533 | 2608 ft | 203 kts | 79° |
| 2026-04-23 20:29 | 51.16156 | -0.09221 | 3162 ft | 222 kts | 78° |
| 2026-04-23 20:29 | 51.16611 | -0.06729 | 3738 ft | 246 kts | 64° |
| 2026-04-23 20:29 | 51.17641 | -0.04481 | 4568 ft | 255 kts | 53° |
| 2026-04-23 20:29 | 51.18745 | -0.02258 | 5359 ft | 257 kts | 54° |
| 2026-04-23 20:30 | 51.19847 | 0.00001 | 6357 ft | 259 kts | 54° |
| 2026-04-23 20:30 | 51.22069 | 0.04621 | 8211 ft | 267 kts | 54° |
| 2026-04-23 20:30 | 51.23213 | 0.07003 | 9133 ft | 271 kts | 54° |
| 2026-04-23 20:31 | 51.24364 | 0.09421 | 10044 ft | 275 kts | 57° |
| 2026-04-23 20:31 | 51.25161 | 0.12198 | 10872 ft | 277 kts | 77° |
| 2026-04-23 20:31 | 51.25522 | 0.15190 | 11708 ft | 279 kts | 80° |
| 2026-04-23 20:31 | 51.25880 | 0.18260 | 12556 ft | 282 kts | 80° |
| 2026-04-23 20:32 | 51.26245 | 0.21363 | 13389 ft | 286 kts | 80° |
| 2026-04-23 20:32 | 51.26616 | 0.24501 | 14254 ft | 289 kts | 80° |
| 2026-04-23 20:32 | 51.26993 | 0.27689 | 14978 ft | 293 kts | 80° |
| 2026-04-23 20:32 | 51.27565 | 0.30853 | 15338 ft | 299 kts | 64° |
| 2026-04-23 20:33 | 51.28830 | 0.33449 | 15489 ft | 305 kts | 41° |
| 2026-04-23 20:33 | 51.30732 | 0.35072 | 16110 ft | 315 kts | 19° |
| 2026-04-23 20:33 | 51.32960 | 0.35519 | 16525 ft | 336 kts | 358° |
| 2026-04-23 20:33 | 51.35265 | 0.34498 | 16660 ft | 362 kts | 333° |
| 2026-04-23 20:34 | 51.37397 | 0.32181 | 17028 ft | 376 kts | 325° |
| 2026-04-23 20:34 | 51.39566 | 0.29685 | 17645 ft | 381 kts | 325° |
| 2026-04-23 20:34 | 51.41714 | 0.27232 | 18325 ft | 385 kts | 325° |
| 2026-04-23 20:34 | 51.43915 | 0.24734 | 18949 ft | 389 kts | 325° |
| 2026-04-23 20:35 | 51.46141 | 0.22220 | 19516 ft | 393 kts | 325° |
| 2026-04-23 20:35 | 51.48398 | 0.19673 | 20101 ft | 397 kts | 325° |
| 2026-04-23 20:35 | 51.50666 | 0.17109 | 20658 ft | 401 kts | 325° |
| 2026-04-23 20:35 | 51.52968 | 0.14503 | 21216 ft | 406 kts | 324° |
| 2026-04-23 20:36 | 51.55260 | 0.11901 | 21766 ft | 410 kts | 324° |
| 2026-04-23 20:36 | 51.57605 | 0.09230 | 22312 ft | 414 kts | 324° |
| 2026-04-23 20:36 | 51.59971 | 0.06531 | 22865 ft | 419 kts | 324° |
| 2026-04-23 20:36 | 51.62364 | 0.03799 | 23398 ft | 423 kts | 324° |
| 2026-04-23 20:37 | 51.64770 | 0.01047 | 23924 ft | 427 kts | 323° |
| 2026-04-23 20:37 | 51.67173 | -0.01711 | 24354 ft | 431 kts | 323° |
| 2026-04-23 20:37 | 51.69633 | -0.04543 | 24808 ft | 435 kts | 323° |
| 2026-04-23 20:37 | 51.72115 | -0.07397 | 25232 ft | 439 kts | 323° |
| 2026-04-23 20:38 | 51.74618 | -0.10257 | 25634 ft | 442 kts | 324° |
| 2026-04-23 20:38 | 51.77239 | -0.12832 | 26033 ft | 446 kts | 328° |
| 2026-04-23 20:38 | 51.79936 | -0.15384 | 26433 ft | 450 kts | 328° |
| 2026-04-23 20:38 | 51.82647 | -0.17957 | 26771 ft | 453 kts | 328° |
| 2026-04-23 20:39 | 51.85386 | -0.20562 | 27157 ft | 456 kts | 328° |
| 2026-04-23 20:39 | 51.88132 | -0.23177 | 27540 ft | 459 kts | 328° |
| 2026-04-23 20:39 | 51.90861 | -0.25785 | 27915 ft | 462 kts | 328° |
| 2026-04-23 20:39 | 51.93649 | -0.28452 | 28284 ft | 465 kts | 328° |
| 2026-04-23 20:40 | 51.96447 | -0.31134 | 28646 ft | 468 kts | 328° |
| 2026-04-23 20:40 | 51.99268 | -0.33848 | 29007 ft | 471 kts | 328° |
| 2026-04-23 20:40 | 52.02092 | -0.36568 | 29357 ft | 474 kts | 328° |
| 2026-04-23 20:40 | 52.04943 | -0.39316 | 29701 ft | 477 kts | 328° |
| 2026-04-23 20:41 | 52.07775 | -0.42047 | 30032 ft | 479 kts | 328° |
| 2026-04-23 20:41 | 52.10660 | -0.44833 | 30353 ft | 482 kts | 328° |
| 2026-04-23 20:41 | 52.13550 | -0.47631 | 30644 ft | 484 kts | 328° |
| 2026-04-23 20:41 | 52.16462 | -0.50458 | 30927 ft | 486 kts | 328° |
| 2026-04-23 20:42 | 52.19371 | -0.53284 | 31227 ft | 487 kts | 328° |
| 2026-04-23 20:42 | 52.22245 | -0.56078 | 31503 ft | 488 kts | 328° |
| 2026-04-23 20:42 | 52.25172 | -0.58924 | 31787 ft | 489 kts | 328° |
| 2026-04-23 20:42 | 52.28097 | -0.61769 | 32122 ft | 487 kts | 328° |
| 2026-04-23 20:43 | 52.30996 | -0.64593 | 32531 ft | 485 kts | 328° |
| 2026-04-23 20:43 | 52.33893 | -0.67424 | 32936 ft | 482 kts | 328° |
| 2026-04-23 20:43 | 52.36768 | -0.70241 | 33335 ft | 480 kts | 328° |
| 2026-04-23 20:43 | 52.39628 | -0.73046 | 33730 ft | 477 kts | 328° |
| 2026-04-23 20:44 | 52.42446 | -0.75812 | 34127 ft | 475 kts | 328° |
| 2026-04-23 20:44 | 52.45289 | -0.78608 | 34524 ft | 473 kts | 328° |
| 2026-04-23 20:44 | 52.48103 | -0.81386 | 34864 ft | 471 kts | 328° |
| 2026-04-23 20:44 | 52.50906 | -0.84160 | 35212 ft | 468 kts | 328° |
| 2026-04-23 20:45 | 52.53692 | -0.86918 | 35547 ft | 466 kts | 328° |
| 2026-04-23 20:45 | 52.56427 | -0.89629 | 35874 ft | 464 kts | 328° |
| 2026-04-23 20:45 | 52.59194 | -0.92374 | 36178 ft | 462 kts | 328° |
| 2026-04-23 20:45 | 52.61945 | -0.95100 | 36432 ft | 460 kts | 329° |
| 2026-04-23 20:46 | 52.64696 | -0.97823 | 36710 ft | 459 kts | 329° |
| 2026-04-23 20:46 | 52.67393 | -1.00498 | 36966 ft | 458 kts | 329° |
| 2026-04-23 20:46 | 52.70123 | -1.03216 | 37281 ft | 456 kts | 328° |
| 2026-04-23 20:46 | 52.72831 | -1.05926 | 37519 ft | 456 kts | 328° |
| 2026-04-23 20:47 | 52.75544 | -1.08645 | 37763 ft | 455 kts | 328° |
| 2026-04-23 20:47 | 52.78259 | -1.11366 | 37994 ft | 454 kts | 328° |
| 2026-04-23 20:47 | 52.80961 | -1.14081 | 38226 ft | 453 kts | 328° |
| 2026-04-23 20:47 | 52.83630 | -1.16763 | 38402 ft | 453 kts | 328° |
| 2026-04-23 20:48 | 52.89082 | -1.21970 | 38439 ft | 451 kts | 333° |
| 2026-04-23 20:48 | 52.94715 | -1.26564 | 38440 ft | 450 kts | 334° |
| 2026-04-23 20:49 | 53.00329 | -1.30989 | 38446 ft | 449 kts | 334° |
| 2026-04-23 20:49 | 53.05975 | -1.35478 | 38447 ft | 449 kts | 334° |
| 2026-04-23 20:50 | 53.11616 | -1.40031 | 38456 ft | 449 kts | 334° |
| 2026-04-23 20:50 | 53.17233 | -1.44605 | 38467 ft | 449 kts | 334° |
| 2026-04-23 20:51 | 53.22818 | -1.49167 | 38478 ft | 449 kts | 334° |
| 2026-04-23 20:51 | 53.28437 | -1.53742 | 38485 ft | 448 kts | 334° |
| 2026-04-23 20:52 | 53.34059 | -1.58286 | 38488 ft | 448 kts | 334° |
| 2026-04-23 20:52 | 53.39657 | -1.62852 | 38487 ft | 447 kts | 334° |
| 2026-04-23 20:53 | 53.45216 | -1.67431 | 38493 ft | 447 kts | 334° |
| 2026-04-23 20:53 | 53.50803 | -1.72058 | 38493 ft | 446 kts | 334° |
| 2026-04-23 20:54 | 53.56346 | -1.76671 | 38495 ft | 446 kts | 334° |
| 2026-04-23 20:54 | 53.61917 | -1.81314 | 38489 ft | 445 kts | 334° |
| 2026-04-23 20:55 | 53.67471 | -1.85937 | 38490 ft | 444 kts | 334° |
| 2026-04-23 20:55 | 53.73014 | -1.90566 | 38487 ft | 443 kts | 334° |
| 2026-04-23 20:56 | 53.78512 | -1.95178 | 38487 ft | 442 kts | 334° |
| 2026-04-23 20:56 | 53.84042 | -1.99823 | 38485 ft | 441 kts | 334° |
| 2026-04-23 20:57 | 53.89522 | -2.04443 | 38483 ft | 440 kts | 334° |
| 2026-04-23 20:57 | 53.94978 | -2.09056 | 38482 ft | 439 kts | 334° |
| 2026-04-23 20:58 | 54.00455 | -2.13705 | 38485 ft | 439 kts | 334° |
| 2026-04-23 20:58 | 54.05912 | -2.18353 | 38486 ft | 438 kts | 334° |
| 2026-04-23 20:59 | 54.11363 | -2.23004 | 38482 ft | 438 kts | 334° |
| 2026-04-23 20:59 | 54.16783 | -2.27648 | 38479 ft | 437 kts | 334° |
| 2026-04-23 21:00 | 54.22235 | -2.32324 | 38479 ft | 437 kts | 334° |
| 2026-04-23 21:00 | 54.27640 | -2.36970 | 38481 ft | 437 kts | 334° |
| 2026-04-23 21:01 | 54.33084 | -2.41673 | 38473 ft | 437 kts | 334° |
| 2026-04-23 21:01 | 54.38521 | -2.46389 | 38476 ft | 437 kts | 334° |
| 2026-04-23 21:02 | 54.43926 | -2.51068 | 38482 ft | 437 kts | 334° |
| 2026-04-23 21:02 | 54.49376 | -2.55728 | 38265 ft | 438 kts | 334° |
| 2026-04-23 21:03 | 54.52064 | -2.58039 | 37595 ft | 438 kts | 334° |
| 2026-04-23 21:03 | 54.54802 | -2.60420 | 36302 ft | 441 kts | 334° |
| 2026-04-23 21:03 | 54.57546 | -2.62833 | 34798 ft | 444 kts | 334° |
| 2026-04-23 21:03 | 54.60296 | -2.65266 | 33306 ft | 442 kts | 334° |
| 2026-04-23 21:04 | 54.63024 | -2.67689 | 31980 ft | 438 kts | 334° |
| 2026-04-23 21:04 | 54.65721 | -2.70089 | 31052 ft | 427 kts | 334° |
| 2026-04-23 21:04 | 54.68273 | -2.72363 | 30601 ft | 413 kts | 334° |
| 2026-04-23 21:04 | 54.70822 | -2.74627 | 29966 ft | 409 kts | 334° |
| 2026-04-23 21:05 | 54.73334 | -2.76852 | 29445 ft | 404 kts | 334° |
| 2026-04-23 21:05 | 54.75835 | -2.79064 | 28907 ft | 399 kts | 334° |
| 2026-04-23 21:05 | 54.78297 | -2.81248 | 28377 ft | 395 kts | 334° |
| 2026-04-23 21:05 | 54.80729 | -2.83416 | 27864 ft | 390 kts | 334° |
| 2026-04-23 21:06 | 54.83103 | -2.85540 | 27370 ft | 387 kts | 334° |
| 2026-04-23 21:06 | 54.85491 | -2.87679 | 26867 ft | 384 kts | 334° |
| 2026-04-23 21:06 | 54.87864 | -2.89791 | 26388 ft | 381 kts | 335° |
| 2026-04-23 21:06 | 54.90284 | -2.91743 | 25849 ft | 384 kts | 337° |
| 2026-04-23 21:07 | 54.92750 | -2.93552 | 25311 ft | 384 kts | 339° |
| 2026-04-23 21:07 | 54.95235 | -2.95286 | 24773 ft | 383 kts | 339° |
| 2026-04-23 21:07 | 54.97689 | -2.96978 | 24247 ft | 383 kts | 339° |
| 2026-04-23 21:07 | 55.00167 | -2.98701 | 23660 ft | 382 kts | 339° |
| 2026-04-23 21:08 | 55.02624 | -3.00442 | 23107 ft | 379 kts | 338° |
| 2026-04-23 21:08 | 55.05059 | -3.02197 | 22593 ft | 377 kts | 338° |
| 2026-04-23 21:08 | 55.07476 | -3.03960 | 22063 ft | 375 kts | 338° |
| 2026-04-23 21:08 | 55.09880 | -3.05723 | 21539 ft | 373 kts | 337° |
| 2026-04-23 21:09 | 55.12271 | -3.07479 | 21019 ft | 372 kts | 337° |
| 2026-04-23 21:09 | 55.13856 | -3.08642 | 20672 ft | 371 kts | 337° |
| 2026-04-23 21:09 | 55.17011 | -3.10954 | 19749 ft | 375 kts | 337° |
| 2026-04-23 21:09 | 55.19452 | -3.12742 | 18935 ft | 383 kts | 336° |
| 2026-04-23 21:10 | 55.21079 | -3.13935 | 18651 ft | 380 kts | 336° |
| 2026-04-23 21:10 | 55.23512 | -3.15724 | 18144 ft | 376 kts | 336° |
| 2026-04-23 21:10 | 55.26661 | -3.18044 | 17668 ft | 355 kts | 336° |
| 2026-04-23 21:10 | 55.28174 | -3.19127 | 17468 ft | 341 kts | 340° |
| 2026-04-23 21:11 | 55.30443 | -3.20038 | 16950 ft | 330 kts | 354° |
| 2026-04-23 21:11 | 55.32712 | -3.20007 | 16442 ft | 322 kts | 4° |
| 2026-04-23 21:11 | 55.34899 | -3.19658 | 15949 ft | 318 kts | 4° |
| 2026-04-23 21:11 | 55.37095 | -3.19309 | 15467 ft | 315 kts | 4° |
| 2026-04-23 21:12 | 55.39288 | -3.18964 | 14981 ft | 318 kts | 4° |
| 2026-04-23 21:12 | 55.41510 | -3.18614 | 14501 ft | 321 kts | 4° |
| 2026-04-23 21:12 | 55.44473 | -3.18146 | 13823 ft | 321 kts | 4° |
| 2026-04-23 21:12 | 55.45939 | -3.17914 | 13471 ft | 315 kts | 4° |
| 2026-04-23 21:13 | 55.48094 | -3.17576 | 12952 ft | 306 kts | 4° |
| 2026-04-23 21:13 | 55.50206 | -3.17245 | 12432 ft | 302 kts | 4° |
| 2026-04-23 21:13 | 55.52300 | -3.16919 | 11930 ft | 300 kts | 4° |
| 2026-04-23 21:13 | 55.54357 | -3.16597 | 11440 ft | 298 kts | 4° |
| 2026-04-23 21:14 | 55.56420 | -3.16274 | 10953 ft | 297 kts | 4° |
| 2026-04-23 21:14 | 55.58475 | -3.16034 | 10459 ft | 294 kts | 355° |
| 2026-04-23 21:14 | 55.60416 | -3.16954 | 9958 ft | 287 kts | 329° |
| 2026-04-23 21:14 | 55.61893 | -3.19259 | 9430 ft | 282 kts | 304° |
| 2026-04-23 21:15 | 55.62970 | -3.22165 | 8932 ft | 281 kts | 300° |
| 2026-04-23 21:15 | 55.63963 | -3.25069 | 8537 ft | 275 kts | 300° |
| 2026-04-23 21:15 | 55.64926 | -3.27921 | 8134 ft | 268 kts | 300° |
| 2026-04-23 21:15 | 55.65878 | -3.30756 | 7738 ft | 267 kts | 300° |
| 2026-04-23 21:16 | 55.66824 | -3.33583 | 7350 ft | 266 kts | 300° |
| 2026-04-23 21:16 | 55.67764 | -3.36402 | 6956 ft | 265 kts | 300° |
| 2026-04-23 21:16 | 55.68659 | -3.39243 | 6558 ft | 263 kts | 296° |
| 2026-04-23 21:16 | 55.69442 | -3.42085 | 6292 ft | 256 kts | 295° |
| 2026-04-23 21:17 | 55.70202 | -3.44900 | 6037 ft | 249 kts | 294° |
| 2026-04-23 21:17 | 55.70943 | -3.47639 | 5779 ft | 243 kts | 295° |
| 2026-04-23 21:17 | 55.71670 | -3.50324 | 5527 ft | 239 kts | 294° |
| 2026-04-23 21:17 | 55.72389 | -3.52978 | 5276 ft | 238 kts | 294° |
| 2026-04-23 21:18 | 55.73108 | -3.55629 | 5019 ft | 237 kts | 295° |
| 2026-04-23 21:18 | 55.74088 | -3.57941 | 4764 ft | 235 kts | 321° |
| 2026-04-23 21:18 | 55.75421 | -3.59517 | 4513 ft | 230 kts | 328° |
| 2026-04-23 21:18 | 55.76797 | -3.60951 | 4265 ft | 227 kts | 329° |
| 2026-04-23 21:19 | 55.78166 | -3.62356 | 4053 ft | 225 kts | 329° |
| 2026-04-23 21:19 | 55.79524 | -3.63747 | 3988 ft | 224 kts | 329° |
| 2026-04-23 21:19 | 55.80834 | -3.65089 | 3991 ft | 210 kts | 329° |
| 2026-04-23 21:19 | 55.82058 | -3.66338 | 4027 ft | 199 kts | 331° |
| 2026-04-23 21:20 | 55.83357 | -3.66974 | 3901 ft | 196 kts | 0° |
| 2026-04-23 21:20 | 55.84652 | -3.66386 | 3721 ft | 192 kts | 30° |
| 2026-04-23 21:20 | 55.85606 | -3.64782 | 3520 ft | 189 kts | 58° |
| 2026-04-23 21:20 | 55.86292 | -3.62783 | 3282 ft | 188 kts | 60° |
| 2026-04-23 21:21 | 55.86962 | -3.60823 | 3037 ft | 187 kts | 59° |
| 2026-04-23 21:21 | 55.87637 | -3.58849 | 2786 ft | 186 kts | 59° |
| 2026-04-23 21:21 | 55.88307 | -3.56891 | 2540 ft | 185 kts | 59° |
| 2026-04-23 21:21 | 55.88976 | -3.54936 | 2293 ft | 184 kts | 60° |
| 2026-04-23 21:22 | 55.89640 | -3.52992 | 2038 ft | 182 kts | 60° |
| 2026-04-23 21:22 | 55.90283 | -3.51110 | 1786 ft | 173 kts | 59° |
| 2026-04-23 21:22 | 55.90893 | -3.49321 | 1561 ft | 165 kts | 60° |
| 2026-04-23 21:22 | 55.91473 | -3.47620 | 1355 ft | 151 kts | 59° |
| 2026-04-23 21:23 | 55.91988 | -3.46107 | 1104 ft | 139 kts | 59° |
| 2026-04-23 21:23 | 55.92476 | -3.44672 | 905 ft | 132 kts | 59° |
| 2026-04-23 21:23 | 55.92947 | -3.43283 | 720 ft | 129 kts | 59° |
| 2026-04-23 21:23 | 55.93413 | -3.41914 | 553 ft | 128 kts | 59° |
| 2026-04-23 21:24 | 55.93875 | -3.40552 | 391 ft | 128 kts | 59° |
| 2026-04-23 21:24 | 55.94337 | -3.39200 | 222 ft | 127 kts | 59° |
| 2026-04-23 21:24 | 55.94791 | -3.37860 | 113 ft | 121 kts | 59° |
| 2026-04-23 21:24 | 55.95044 | -3.37120 | 112 ft | 38 kts | 59° |
| 2026-04-23 21:25 | 55.95168 | -3.36754 | 113 ft | 23 kts | 58° |
| 2026-04-23 21:25 | 55.95225 | -3.36585 | 113 ft | 17 kts | 59° |
| 2026-04-23 21:25 | 55.95260 | -3.36463 | 112 ft | 8 kts | 86° |
| 2026-04-23 21:25 | 55.95231 | -3.36395 | 113 ft | 5 kts | 145° |
| 2026-04-23 21:26 | 55.95210 | -3.36370 | 113 ft | 6 kts | 147° |
| 2026-04-23 21:26 | 55.95185 | -3.36342 | 116 ft | 3 kts | 149° |
| 2026-04-23 21:26 | 55.95172 | -3.36329 | 113 ft | 1 kts | 150° |
| 2026-04-23 21:26 | 55.95150 | -3.36311 | 115 ft | 7 kts | 164° |
| 2026-04-23 21:27 | 55.95110 | -3.36359 | 116 ft | 11 kts | 233° |
| 2026-04-23 21:27 | 55.95056 | -3.36401 | 115 ft | 6 kts | 163° |
| 2026-04-23 21:27 | 55.95027 | -3.36351 | 115 ft | 5 kts | 140° |
| 2026-04-23 21:27 | 55.94998 | -3.36322 | 115 ft | 4 kts | 150° |
| 2026-04-23 21:28 | 55.94974 | -3.36296 | 114 ft | 3 kts | 149° |
| 2026-04-23 21:28 | 55.94965 | -3.36286 | 116 ft | 1 kts | 149° |
| 2026-04-23 21:28 | 55.94961 | -3.36281 | 116 ft | 0 kts | 148° |
| 2026-04-23 21:28 | 55.94960 | -3.36281 | 116 ft | 0 kts | 148° |